createdAt,value
2023-02-11T00:01:08.027Z,8.22
2023-02-11T00:03:36.212Z,8.37
2023-02-11T00:06:06.683Z,8.35
2023-02-11T00:08:36.390Z,8.26
2023-02-11T00:11:04.818Z,8.26
2023-02-11T00:13:32.814Z,8.27
2023-02-11T00:16:00.936Z,8.27
2023-02-11T00:18:29.196Z,8.29
2023-02-11T00:20:57.212Z,8.32
2023-02-11T00:23:25.181Z,8.27
2023-02-11T00:25:54.661Z,8.20
2023-02-11T00:28:22.634Z,8.27
2023-02-11T00:30:55.952Z,8.42
2023-02-11T00:33:24.070Z,8.25
2023-02-11T00:35:52.772Z,8.21
2023-02-11T00:38:20.975Z,8.27
2023-02-11T00:40:49.627Z,8.29
2023-02-11T00:43:19.368Z,8.33
2023-02-11T00:45:47.446Z,8.33
2023-02-11T00:48:15.753Z,8.11
2023-02-11T00:50:43.890Z,8.14
2023-02-11T00:53:12.153Z,8.28
2023-02-11T00:55:40.595Z,8.32
2023-02-11T00:58:08.666Z,8.32
2023-02-11T01:00:38.097Z,8.37
2023-02-11T01:03:07.493Z,8.26
2023-02-11T01:05:35.634Z,8.08
2023-02-11T01:08:04.061Z,8.26
2023-02-11T01:10:32.461Z,8.51
2023-02-11T01:13:01.793Z,8.47
2023-02-11T01:15:30.424Z,8.41
2023-02-11T01:18:00.169Z,8.40
2023-02-11T01:20:29.911Z,8.24
2023-02-11T01:22:58.282Z,8.26
2023-02-11T01:25:26.542Z,8.37
2023-02-11T01:27:55.098Z,8.20
2023-02-11T01:30:24.146Z,8.10
2023-02-11T01:32:52.516Z,8.24
2023-02-11T01:35:21.766Z,8.25
2023-02-11T01:37:49.956Z,8.25
2023-02-11T01:40:19.952Z,8.28
2023-02-11T01:42:50.898Z,8.26
2023-02-11T01:45:52.807Z,8.23
2023-02-11T01:48:25.810Z,8.02
2023-02-11T01:51:00.829Z,7.94
2023-02-11T01:53:48.483Z,8.18
2023-02-11T01:56:37.634Z,8.20
2023-02-11T01:59:12.745Z,8.20
2023-02-11T02:01:44.052Z,8.23
2023-02-11T02:04:13.515Z,8.19
2023-02-11T02:06:50.199Z,8.20
2023-02-11T02:09:23.280Z,8.13
2023-02-11T02:11:51.944Z,8.21
2023-02-11T02:14:20.412Z,8.25
2023-02-11T02:16:48.568Z,8.16
2023-02-11T02:19:55.177Z,8.22
2023-02-11T02:22:56.757Z,8.30
2023-02-11T02:25:41.780Z,8.26
2023-02-11T02:28:29.942Z,8.23
2023-02-11T02:31:20.530Z,8.37
2023-02-11T02:33:56.743Z,8.31
2023-02-11T02:36:33.054Z,8.32
2023-02-11T02:39:04.849Z,8.43
2023-02-11T02:41:35.375Z,8.46
2023-02-11T02:44:03.898Z,8.24
2023-02-11T02:46:34.079Z,8.17
2023-02-11T02:49:03.561Z,8.28
2023-02-11T02:51:56.794Z,8.33
2023-02-11T02:54:52.663Z,8.17
2023-02-11T02:57:31.848Z,8.22
2023-02-11T03:00:12.997Z,8.24
2023-02-11T03:02:47.872Z,8.24
2023-02-11T03:05:23.594Z,8.20
2023-02-11T03:07:58.648Z,8.29
2023-02-11T03:10:30.608Z,8.15
2023-02-11T03:13:00.843Z,7.99
2023-02-11T03:15:32.877Z,7.93
2023-02-11T03:18:04.335Z,8.01
2023-02-11T03:20:37.343Z,8.15
2023-02-11T03:23:09.272Z,8.26
2023-02-11T03:25:43.200Z,8.25
2023-02-11T03:28:16.941Z,8.16
2023-02-11T03:30:50.535Z,8.26
2023-02-11T03:33:22.867Z,8.21
2023-02-11T03:35:57.784Z,7.93
2023-02-11T03:38:30.664Z,8.15
2023-02-11T03:40:59.909Z,8.02
2023-02-11T03:43:34.170Z,8.26
2023-02-11T03:46:04.421Z,8.30
2023-02-11T03:48:36.325Z,8.29
2023-02-11T03:51:08.946Z,8.21
2023-02-11T03:53:39.710Z,8.28
2023-02-11T03:56:11.792Z,8.36
2023-02-11T03:58:39.775Z,8.34
2023-02-11T04:01:09.939Z,8.35
2023-02-11T04:03:38.281Z,8.44
2023-02-11T04:06:08.125Z,8.60
2023-02-11T04:08:36.366Z,8.65
2023-02-11T04:11:04.481Z,8.63
2023-02-11T04:13:32.640Z,8.66
2023-02-11T04:16:00.647Z,8.67
2023-02-11T04:18:28.679Z,8.63
2023-02-11T04:20:56.703Z,8.71
2023-02-11T04:23:26.251Z,8.57
2023-02-11T04:25:54.442Z,8.59
2023-02-11T04:28:22.651Z,8.62
2023-02-11T04:30:50.945Z,8.74
2023-02-11T04:33:18.965Z,8.61
2023-02-11T04:35:47.565Z,8.70
2023-02-11T04:38:15.825Z,8.57
2023-02-11T04:40:45.240Z,8.61
2023-02-11T04:43:13.324Z,8.73
2023-02-11T04:45:41.484Z,8.80
2023-02-11T04:48:09.483Z,8.69
2023-02-11T04:50:37.583Z,8.67
2023-02-11T04:53:05.657Z,8.75
2023-02-11T04:55:33.844Z,8.81
2023-02-11T04:58:03.841Z,8.69
2023-02-11T05:00:32.267Z,8.86
2023-02-11T05:03:00.476Z,8.89
2023-02-11T05:05:28.514Z,8.92
2023-02-11T05:07:56.735Z,8.97
2023-02-11T05:10:24.992Z,9.02
2023-02-11T05:12:55.416Z,8.91
2023-02-11T05:15:25.678Z,9.05
2023-02-11T05:17:54.579Z,9.09
2023-02-11T05:20:23.734Z,8.99
2023-02-11T05:22:52.551Z,9.06
2023-02-11T05:25:22.685Z,8.97
2023-02-11T05:27:50.806Z,8.78
2023-02-11T05:30:19.611Z,8.77
2023-02-11T05:32:49.051Z,8.97
2023-02-11T05:35:17.608Z,8.93
2023-02-11T05:37:46.740Z,8.91
2023-02-11T05:40:15.064Z,8.97
2023-02-11T05:42:43.566Z,9.04
2023-02-11T05:45:11.903Z,9.05
2023-02-11T05:47:39.804Z,8.98
2023-02-11T05:50:09.905Z,9.19
2023-02-11T05:52:38.032Z,9.02
2023-02-11T05:55:07.009Z,9.05
2023-02-11T05:57:34.905Z,9.13
2023-02-11T06:00:03.437Z,9.22
2023-02-11T06:02:41.044Z,9.32
2023-02-11T06:05:10.872Z,9.19
2023-02-11T06:07:39.031Z,8.99
2023-02-11T06:10:08.655Z,9.12
2023-02-11T06:12:38.038Z,9.15
2023-02-11T06:15:07.509Z,9.22
2023-02-11T06:17:36.725Z,9.29
2023-02-11T06:20:06.455Z,9.30
2023-02-11T06:22:35.834Z,9.27
2023-02-11T06:25:04.178Z,9.24
2023-02-11T06:27:32.396Z,9.21
2023-02-11T06:30:00.793Z,9.17
2023-02-11T06:32:46.068Z,9.22
2023-02-11T06:35:15.812Z,9.24
2023-02-11T06:37:45.763Z,9.23
2023-02-11T06:40:14.393Z,9.20
2023-02-11T06:42:42.750Z,9.12
2023-02-11T06:45:13.177Z,9.19
2023-02-11T06:47:42.171Z,9.17
2023-02-11T06:50:14.496Z,9.14
2023-02-11T06:52:43.162Z,9.18
2023-02-11T06:55:14.264Z,9.15
2023-02-11T06:57:42.851Z,9.18
2023-02-11T07:00:12.796Z,9.09
2023-02-11T07:02:41.251Z,9.19
2023-02-11T07:05:10.482Z,9.19
2023-02-11T07:07:39.325Z,8.97
2023-02-11T07:10:08.465Z,9.06
2023-02-11T07:12:37.977Z,9.13
2023-02-11T07:15:07.779Z,9.23
2023-02-11T07:17:36.417Z,9.18
2023-02-11T07:20:05.523Z,9.15
2023-02-11T07:22:35.262Z,9.39
2023-02-11T07:25:04.742Z,9.24
2023-02-11T07:27:33.166Z,9.33
2023-02-11T07:30:07.338Z,9.39
2023-02-11T07:32:35.730Z,9.48
2023-02-11T07:35:03.988Z,9.28
2023-02-11T07:37:32.020Z,9.32
2023-02-11T07:40:01.557Z,9.36
2023-02-11T07:42:29.917Z,9.31
2023-02-11T07:44:58.010Z,9.13
2023-02-11T07:47:28.269Z,9.24
2023-02-11T07:49:56.817Z,9.27
2023-02-11T07:52:25.264Z,9.16
2023-02-11T07:54:53.461Z,9.17
2023-02-11T07:57:21.551Z,9.26
2023-02-11T07:59:49.662Z,9.40
2023-02-11T08:02:18.202Z,9.19
2023-02-11T08:04:48.463Z,9.22
2023-02-11T08:07:17.596Z,9.12
2023-02-11T08:09:46.028Z,9.26
2023-02-11T08:12:14.575Z,9.25
2023-02-11T08:14:42.564Z,9.42
2023-02-11T08:17:10.588Z,9.36
2023-02-11T08:19:40.081Z,9.44
2023-02-11T08:22:09.846Z,9.39
2023-02-11T08:24:37.857Z,9.49
2023-02-11T08:27:05.805Z,9.52
2023-02-11T08:29:34.083Z,9.56
2023-02-11T08:32:02.949Z,9.84
2023-02-11T08:34:31.250Z,9.72
2023-02-11T08:36:59.326Z,9.67
2023-02-11T08:39:28.882Z,9.42
2023-02-11T08:41:58.003Z,9.48
2023-02-11T08:44:26.212Z,9.47
2023-02-11T08:46:54.767Z,9.44
2023-02-11T08:49:23.907Z,9.49
2023-02-11T08:51:52.004Z,9.55
2023-02-11T08:54:20.117Z,9.60
2023-02-11T08:56:53.188Z,9.65
2023-02-11T08:59:21.322Z,9.63
2023-02-11T09:01:49.927Z,9.73
2023-02-11T09:04:18.795Z,9.77
2023-02-11T09:06:48.960Z,9.78
2023-02-11T09:09:18.181Z,9.72
2023-02-11T09:11:48.176Z,9.87
2023-02-11T09:14:20.852Z,9.88
2023-02-11T09:16:49.898Z,9.94
2023-02-11T09:19:19.666Z,9.78
2023-02-11T09:21:48.721Z,9.80
2023-02-11T09:24:17.378Z,9.84
2023-02-11T09:26:45.891Z,9.89
2023-02-11T09:29:14.550Z,9.79
2023-02-11T09:31:44.384Z,9.71
2023-02-11T09:34:14.319Z,9.78
2023-02-11T09:36:43.541Z,9.91
2023-02-11T09:39:17.301Z,9.88
2023-02-11T09:42:15.661Z,9.98
2023-02-11T09:44:47.986Z,9.94
2023-02-11T09:47:37.315Z,9.92
2023-02-11T09:50:15.584Z,9.88
2023-02-11T09:52:53.368Z,9.90
2023-02-11T09:55:27.471Z,10.02
2023-02-11T09:57:58.214Z,10.03
2023-02-11T10:00:40.844Z,10.04
2023-02-11T10:03:46.655Z,10.28
2023-02-11T10:06:28.214Z,10.29
2023-02-11T10:09:07.942Z,10.34
2023-02-11T10:11:49.457Z,10.25
2023-02-11T10:14:36.430Z,10.39
2023-02-11T10:17:17.461Z,10.47
2023-02-11T10:20:05.614Z,10.49
2023-02-11T10:22:40.679Z,10.50
2023-02-11T10:25:21.922Z,10.31
2023-02-11T10:27:52.643Z,10.36
2023-02-11T10:30:30.191Z,10.36
2023-02-11T10:33:05.190Z,10.46
2023-02-11T10:35:35.845Z,10.29
2023-02-11T10:38:06.975Z,10.46
2023-02-11T10:40:35.841Z,10.58
2023-02-11T10:43:08.117Z,10.54
2023-02-11T10:45:40.997Z,10.45
2023-02-11T10:48:42.366Z,10.71
2023-02-11T10:51:20.787Z,10.66
2023-02-11T10:53:51.813Z,10.75
2023-02-11T10:56:27.844Z,10.69
2023-02-11T10:59:00.148Z,10.69
2023-02-11T11:01:46.534Z,10.87
2023-02-11T11:04:41.195Z,10.77
2023-02-11T11:07:23.699Z,10.79
2023-02-11T11:09:55.896Z,10.77
2023-02-11T11:12:48.125Z,10.73
2023-02-11T11:15:23.973Z,10.72
2023-02-11T11:18:20.907Z,10.71
2023-02-11T11:21:00.839Z,10.78
2023-02-11T11:23:32.226Z,10.67
2023-02-11T11:26:06.291Z,10.77
2023-02-11T11:28:41.037Z,10.75
2023-02-11T11:31:18.429Z,10.75
2023-02-11T11:33:49.210Z,10.81
2023-02-11T11:36:22.815Z,10.96
2023-02-11T11:38:54.781Z,11.06
2023-02-11T11:41:28.658Z,11.00
2023-02-11T11:43:58.210Z,11.07
2023-02-11T11:46:30.061Z,10.87
2023-02-11T11:49:17.668Z,10.86
2023-02-11T11:51:58.111Z,10.78
2023-02-11T11:54:30.501Z,10.82
2023-02-11T11:57:04.614Z,10.91
2023-02-11T11:59:34.317Z,10.86
2023-02-11T12:02:36.953Z,10.94
2023-02-11T12:05:13.101Z,11.08
2023-02-11T12:07:53.293Z,11.11
2023-02-11T12:10:46.909Z,11.18
2023-02-11T12:13:35.455Z,10.93
2023-02-11T12:16:17.393Z,11.11
2023-02-11T12:19:13.659Z,11.12
2023-02-11T12:21:52.117Z,11.10
2023-02-11T12:24:36.885Z,11.12
2023-02-11T12:27:14.500Z,11.15
2023-02-11T12:30:02.715Z,11.13
2023-02-11T12:32:39.748Z,11.16
2023-02-11T12:35:21.854Z,11.30
2023-02-11T12:38:09.894Z,11.37
2023-02-11T12:40:47.250Z,11.37
2023-02-11T12:43:22.746Z,11.30
2023-02-11T12:46:17.630Z,11.30
2023-02-11T12:49:07.543Z,11.20
2023-02-11T12:51:51.497Z,11.16
2023-02-11T12:54:28.880Z,11.22
2023-02-11T12:57:04.113Z,11.38
2023-02-11T12:59:46.632Z,11.34
2023-02-11T13:02:26.504Z,11.17
2023-02-11T13:04:59.250Z,11.05
2023-02-11T13:07:33.732Z,11.09
2023-02-11T13:10:08.940Z,11.06
2023-02-11T13:12:56.787Z,11.07
2023-02-11T13:15:27.879Z,11.25
2023-02-11T13:18:02.211Z,11.22
2023-02-11T13:20:41.558Z,11.31
2023-02-11T13:23:21.082Z,11.20
2023-02-11T13:25:56.873Z,11.26
2023-02-11T13:28:40.787Z,11.24
2023-02-11T13:31:13.400Z,11.30
2023-02-11T13:33:46.768Z,11.15
2023-02-11T13:36:28.124Z,11.26
2023-02-11T13:39:10.954Z,11.13
2023-02-11T13:41:51.577Z,10.96
2023-02-11T13:44:28.617Z,11.02
2023-02-11T13:47:05.500Z,10.99
2023-02-11T13:49:42.446Z,11.08
2023-02-11T13:52:29.209Z,11.16
2023-02-11T13:55:06.578Z,11.03
2023-02-11T13:57:43.896Z,11.17
2023-02-11T14:00:45.237Z,11.26
2023-02-11T14:03:48.705Z,11.26
2023-02-11T14:06:40.988Z,11.25
2023-02-11T14:09:39.944Z,11.20
2023-02-11T14:12:27.362Z,11.09
2023-02-11T14:15:38.336Z,11.16
2023-02-11T14:18:39.920Z,11.20
2023-02-11T14:21:16.278Z,11.10
2023-02-11T14:23:45.772Z,11.03
2023-02-11T14:26:35.078Z,11.09
2023-02-11T14:29:14.113Z,11.18
2023-02-11T14:31:49.244Z,11.19
2023-02-11T14:34:39.331Z,11.24
2023-02-11T14:37:18.314Z,11.29
2023-02-11T14:40:04.167Z,11.23
2023-02-11T14:42:32.453Z,11.19
2023-02-11T14:45:06.978Z,11.19
2023-02-11T14:47:42.049Z,11.22
2023-02-11T14:50:19.203Z,11.15
2023-02-11T14:52:49.828Z,11.19
2023-02-11T14:55:29.330Z,11.12
2023-02-11T14:58:15.458Z,11.08
2023-02-11T15:00:56.505Z,11.19
2023-02-11T15:03:34.838Z,11.20
2023-02-11T15:06:07.463Z,11.13
2023-02-11T15:08:39.316Z,11.21
2023-02-11T15:11:12.983Z,11.15
2023-02-11T15:13:48.083Z,11.11
2023-02-11T15:16:19.375Z,11.05
2023-02-11T15:18:51.783Z,10.92
2023-02-11T15:21:25.848Z,10.81
2023-02-11T15:24:00.698Z,10.82
2023-02-11T15:26:30.416Z,10.85
2023-02-11T15:28:59.420Z,10.72
2023-02-11T15:31:29.440Z,10.80
2023-02-11T15:34:08.850Z,10.86
2023-02-11T15:36:37.117Z,11.08
2023-02-11T15:39:20.940Z,10.91
2023-02-11T15:41:48.860Z,11.03
2023-02-11T15:44:31.149Z,10.98
2023-02-11T15:46:59.600Z,10.82
2023-02-11T15:49:28.327Z,10.86
2023-02-11T15:51:58.275Z,10.76
2023-02-11T15:54:32.057Z,10.65
2023-02-11T15:57:05.583Z,10.68
2023-02-11T15:59:38.181Z,10.79
2023-02-11T16:02:17.216Z,10.64
2023-02-11T16:04:52.370Z,10.60
2023-02-11T16:07:39.582Z,10.74
2023-02-11T16:10:24.610Z,10.86
2023-02-11T16:12:55.328Z,10.89
2023-02-11T16:15:46.404Z,10.93
2023-02-11T16:18:31.067Z,10.81
2023-02-11T16:21:07.056Z,10.84
2023-02-11T16:23:39.022Z,10.91
2023-02-11T16:26:14.128Z,10.93
2023-02-11T16:28:42.457Z,10.92
2023-02-11T16:31:11.965Z,10.93
2023-02-11T16:33:40.335Z,10.97
2023-02-11T16:36:14.254Z,11.02
2023-02-11T16:38:42.385Z,10.80
2023-02-11T16:41:12.995Z,10.91
2023-02-11T16:43:41.315Z,10.97
2023-02-11T16:46:10.217Z,10.72
2023-02-11T16:48:39.301Z,10.81
2023-02-11T16:51:09.861Z,10.84
2023-02-11T16:53:38.647Z,10.96
2023-02-11T16:56:07.203Z,10.77
2023-02-11T16:58:39.692Z,10.80
2023-02-11T17:01:10.175Z,10.78
2023-02-11T17:03:41.202Z,10.83
2023-02-11T17:06:11.998Z,10.74
2023-02-11T17:08:40.647Z,10.89
2023-02-11T17:11:10.395Z,10.83
2023-02-11T17:13:42.014Z,10.88
2023-02-11T17:16:18.824Z,10.96
2023-02-11T17:18:47.810Z,10.94
2023-02-11T17:21:17.089Z,10.97
2023-02-11T17:23:46.084Z,11.01
2023-02-11T17:26:15.211Z,11.02
2023-02-11T17:28:44.832Z,10.80
2023-02-11T17:31:13.428Z,10.85
2023-02-11T17:33:41.720Z,10.71
2023-02-11T17:36:12.262Z,10.71
2023-02-11T17:38:45.932Z,10.72
2023-02-11T17:41:13.992Z,10.58
2023-02-11T17:43:42.948Z,10.56
2023-02-11T17:46:14.465Z,10.52
2023-02-11T17:48:42.877Z,10.41
2023-02-11T17:51:23.091Z,10.48
2023-02-11T17:53:52.002Z,10.55
2023-02-11T17:56:20.402Z,10.49
2023-02-11T17:58:48.731Z,10.48
2023-02-11T18:01:18.314Z,10.52
2023-02-11T18:03:46.425Z,10.43
2023-02-11T18:06:15.651Z,10.54
2023-02-11T18:08:43.861Z,10.50
2023-02-11T18:11:15.175Z,10.49
2023-02-11T18:13:43.820Z,10.45
2023-02-11T18:16:15.924Z,10.51
2023-02-11T18:18:45.907Z,10.57
2023-02-11T18:21:16.860Z,10.64
2023-02-11T18:23:46.511Z,10.65
2023-02-11T18:26:16.512Z,10.57
2023-02-11T18:28:45.957Z,10.64
2023-02-11T18:31:15.726Z,10.58
2023-02-11T18:33:45.817Z,10.52
2023-02-11T18:36:15.715Z,10.42
2023-02-11T18:38:45.097Z,10.42
2023-02-11T18:41:13.499Z,10.39
2023-02-11T18:43:42.986Z,10.24
2023-02-11T18:46:12.719Z,10.28
2023-02-11T18:48:41.765Z,10.22
2023-02-11T18:51:12.458Z,9.96
2023-02-11T18:53:40.832Z,9.89
2023-02-11T18:56:09.776Z,10.05
2023-02-11T18:58:38.553Z,10.00
2023-02-11T19:01:12.714Z,9.97
2023-02-11T19:03:40.807Z,9.91
2023-02-11T19:06:17.972Z,9.89
2023-02-11T19:08:46.098Z,10.04
2023-02-11T19:11:16.087Z,10.01
2023-02-11T19:13:43.998Z,9.83
2023-02-11T19:16:14.863Z,9.75
2023-02-11T19:18:43.101Z,9.80
2023-02-11T19:21:14.407Z,9.79
2023-02-11T19:23:44.364Z,9.83
2023-02-11T19:26:15.123Z,9.94
2023-02-11T19:28:44.897Z,9.85
2023-02-11T19:31:13.049Z,9.81
2023-02-11T19:33:41.126Z,9.80
2023-02-11T19:36:11.884Z,9.68
2023-02-11T19:38:40.023Z,9.52
2023-02-11T19:41:12.365Z,9.49
2023-02-11T19:43:41.597Z,9.64
2023-02-11T19:46:10.059Z,9.82
2023-02-11T19:48:38.158Z,9.67
2023-02-11T19:51:13.115Z,9.62
2023-02-11T19:53:41.625Z,9.66
2023-02-11T19:56:12.672Z,9.59
2023-02-11T19:58:41.774Z,9.50
2023-02-11T20:01:11.575Z,9.59
2023-02-11T20:03:42.424Z,9.62
2023-02-11T20:06:14.103Z,9.58
2023-02-11T20:08:42.502Z,9.54
2023-02-11T20:11:14.257Z,9.49
2023-02-11T20:13:43.210Z,9.56
2023-02-11T20:16:13.831Z,9.56
2023-02-11T20:18:42.367Z,9.53
2023-02-11T20:21:11.361Z,9.48
2023-02-11T20:23:40.376Z,9.61
2023-02-11T20:26:09.704Z,9.64
2023-02-11T20:28:39.347Z,9.63
2023-02-11T20:31:08.068Z,9.64
2023-02-11T20:33:36.145Z,9.68
2023-02-11T20:36:06.552Z,9.61
2023-02-11T20:38:34.834Z,9.67
2023-02-11T20:41:04.632Z,9.69
2023-02-11T20:43:33.129Z,9.66
2023-02-11T20:46:05.955Z,9.76
2023-02-11T20:48:34.821Z,9.72
2023-02-11T20:51:07.412Z,9.70
2023-02-11T20:53:36.710Z,9.66
2023-02-11T20:56:06.653Z,9.72
2023-02-11T20:58:35.835Z,9.76
2023-02-11T21:01:10.125Z,9.78
2023-02-11T21:03:38.179Z,9.71
2023-02-11T21:06:07.065Z,9.71
2023-02-11T21:08:35.264Z,9.70
2023-02-11T21:11:03.822Z,9.78
2023-02-11T21:13:31.918Z,9.83
2023-02-11T21:16:00.332Z,9.73
2023-02-11T21:18:30.773Z,9.71
2023-02-11T21:21:00.185Z,9.78
2023-02-11T21:23:29.115Z,9.89
2023-02-11T21:25:57.941Z,9.82
2023-02-11T21:28:27.140Z,9.84
2023-02-11T21:30:57.334Z,9.73
2023-02-11T21:33:26.731Z,9.44
2023-02-11T21:35:57.465Z,9.44
2023-02-11T21:38:27.530Z,9.40
2023-02-11T21:40:55.939Z,9.32
2023-02-11T21:43:25.004Z,9.21
2023-02-11T21:45:53.755Z,9.09
2023-02-11T21:48:23.857Z,9.01
2023-02-11T21:50:52.303Z,9.10
2023-02-11T21:53:21.692Z,8.97
2023-02-11T21:55:51.346Z,8.88
2023-02-11T21:58:19.643Z,8.88
2023-02-11T22:00:47.838Z,8.96
2023-02-11T22:03:15.977Z,8.91
2023-02-11T22:05:44.216Z,9.01
2023-02-11T22:08:12.572Z,9.01
2023-02-11T22:10:42.634Z,8.89
2023-02-11T22:13:11.010Z,8.95
2023-02-11T22:15:40.248Z,9.11
2023-02-11T22:18:08.494Z,8.73
2023-02-11T22:20:36.795Z,8.63
2023-02-11T22:23:04.776Z,8.49
2023-02-11T22:25:32.868Z,8.64
2023-02-11T22:28:02.669Z,8.53
2023-02-11T22:30:31.353Z,8.66
2023-02-11T22:32:59.656Z,8.63
2023-02-11T22:35:27.793Z,8.81
2023-02-11T22:37:55.820Z,8.85
2023-02-11T22:40:25.615Z,8.85
2023-02-11T22:42:54.142Z,8.89
2023-02-11T22:45:24.330Z,8.87
2023-02-11T22:47:54.449Z,8.91
2023-02-11T22:50:22.953Z,9.04
2023-02-11T22:52:51.010Z,8.95
2023-02-11T22:55:19.375Z,8.96
2023-02-11T22:57:47.617Z,9.10
2023-02-11T23:00:17.245Z,8.96
2023-02-11T23:02:46.844Z,9.10
2023-02-11T23:05:15.339Z,9.05
2023-02-11T23:07:43.600Z,9.22
2023-02-11T23:10:12.161Z,9.28
2023-02-11T23:12:40.361Z,9.24
2023-02-11T23:15:09.175Z,9.17
2023-02-11T23:17:37.323Z,9.22
2023-02-11T23:20:07.930Z,9.17
2023-02-11T23:22:35.976Z,9.19
2023-02-11T23:25:04.006Z,9.14
2023-02-11T23:27:32.142Z,9.03
2023-02-11T23:30:00.336Z,9.00
2023-02-11T23:32:28.234Z,9.11
2023-02-11T23:34:56.608Z,9.20
2023-02-11T23:37:26.226Z,9.29
2023-02-11T23:39:54.483Z,9.29
2023-02-11T23:42:22.584Z,9.38
2023-02-11T23:44:50.536Z,9.13
2023-02-11T23:47:18.515Z,9.15
2023-02-11T23:49:46.518Z,9.19
2023-02-11T23:52:14.511Z,9.26
2023-02-11T23:54:45.612Z,9.32
2023-02-11T23:57:13.552Z,9.29
2023-02-11T23:59:43.158Z,9.25
